createdAt,value
2019-03-26T21:49:22.530Z,7.43
2019-03-26T21:51:52.697Z,8.23
2019-03-26T21:54:22.794Z,8.37
2019-03-26T21:56:52.824Z,10.27
2019-03-26T21:59:25.240Z,8.47
2019-03-26T22:01:55.515Z,11.33
2019-03-26T22:04:25.645Z,10.80
2019-03-26T22:06:55.767Z,30.90
2019-03-26T22:09:25.797Z,32.57
2019-03-26T22:11:55.853Z,23.07
2019-03-26T22:14:26.067Z,17.90
2019-03-26T22:16:56.313Z,16.50
2019-03-26T22:19:28.695Z,9.73
2019-03-26T22:21:57.848Z,7.70
2019-03-26T22:24:27.932Z,7.90
2019-03-26T22:26:57.954Z,7.73
2019-03-26T22:29:28.043Z,8.17
2019-03-26T22:31:58.023Z,8.03
2019-03-26T22:34:27.960Z,8.27
2019-03-26T22:36:57.940Z,7.33
2019-03-26T22:39:27.870Z,7.80
2019-03-26T22:41:57.885Z,8.90
2019-03-26T22:44:31.672Z,8.97
2019-03-26T22:46:59.485Z,8.60
2019-03-26T22:49:29.407Z,8.20
2019-03-26T22:51:59.399Z,8.10
2019-03-26T22:54:29.390Z,9.23
2019-03-26T22:56:59.319Z,9.00
2019-03-26T22:59:30.307Z,9.27
2019-03-26T23:02:00.427Z,9.37
2019-03-26T23:04:30.415Z,9.03
2019-03-26T23:07:00.493Z,9.50
2019-03-26T23:09:30.482Z,9.20
2019-03-26T23:12:00.460Z,9.03
2019-03-26T23:14:43.947Z,9.60
2019-03-26T23:17:03.446Z,9.10
2019-03-26T23:19:33.462Z,9.10
2019-03-26T23:22:03.559Z,10.23
2019-03-26T23:24:33.579Z,8.73
2019-03-26T23:27:03.666Z,8.30
